createdAt,value
2023-02-13T07:57:16.746Z,91.40
2023-02-13T07:59:45.605Z,91.40
2023-02-13T08:02:15.341Z,91.20
2023-02-13T08:04:46.322Z,91.10
2023-02-13T08:07:17.135Z,90.90
2023-02-13T08:10:05.996Z,90.80
2023-02-13T08:12:36.046Z,90.50
2023-02-13T08:15:05.479Z,90.40
2023-02-13T08:17:32.771Z,90.30
2023-02-13T08:20:00.148Z,90.20
2023-02-13T08:22:27.509Z,89.80
2023-02-13T08:24:54.822Z,89.50
2023-02-13T08:27:23.053Z,89.50
2023-02-13T08:29:53.834Z,89.30
2023-02-13T08:32:21.181Z,88.70
2023-02-13T08:34:48.518Z,88.20
2023-02-13T08:37:16.732Z,87.90
2023-02-13T08:39:44.698Z,88.00
2023-02-13T08:42:15.674Z,87.70
2023-02-13T08:44:44.285Z,87.60
2023-02-13T08:47:11.869Z,87.30
2023-02-13T08:49:39.193Z,87.20
2023-02-13T08:52:06.556Z,87.30
2023-02-13T08:54:36.152Z,86.50
2023-02-13T08:57:03.982Z,86.10
2023-02-13T08:59:31.397Z,85.90
2023-02-13T09:01:58.964Z,85.20
2023-02-13T09:04:26.353Z,85.00
2023-02-13T09:06:53.912Z,84.30
2023-02-13T09:09:21.313Z,84.50
2023-02-13T09:11:48.682Z,84.20
2023-02-13T09:14:16.026Z,83.30
2023-02-13T09:16:43.387Z,82.60
2023-02-13T09:19:10.714Z,82.30
2023-02-13T09:21:38.028Z,81.30
2023-02-13T09:24:10.456Z,81.50
2023-02-13T09:26:37.934Z,81.00
2023-02-13T09:29:05.262Z,80.30
2023-02-13T09:31:32.662Z,79.70
2023-02-13T09:34:00.030Z,79.30
2023-02-13T09:36:27.360Z,78.00
2023-02-13T09:38:57.691Z,77.90
2023-02-13T09:41:40.973Z,77.30
2023-02-13T09:44:44.710Z,76.40
2023-02-13T09:47:37.233Z,75.50
2023-02-13T09:50:28.634Z,74.80
2023-02-13T09:52:58.494Z,73.80
2023-02-13T09:56:16.380Z,73.40
2023-02-13T09:59:12.504Z,73.40
2023-02-13T10:01:50.541Z,72.50
2023-02-13T10:05:02.087Z,72.10
2023-02-13T10:08:12.819Z,71.70
2023-02-13T10:11:41.138Z,71.40
2023-02-13T10:15:05.422Z,70.50
2023-02-13T10:18:06.468Z,69.20
2023-02-13T10:20:52.768Z,68.90
2023-02-13T10:23:50.180Z,68.50
2023-02-13T10:26:42.709Z,68.10
2023-02-13T10:29:42.513Z,67.40
2023-02-13T10:32:17.234Z,66.40
2023-02-13T10:34:47.091Z,66.20
2023-02-13T10:37:21.421Z,66.30
2023-02-13T10:39:54.124Z,65.30
2023-02-13T10:42:42.130Z,64.40
2023-02-13T10:46:31.382Z,63.70
2023-02-13T10:49:17.837Z,64.20
2023-02-13T10:52:33.713Z,63.30
2023-02-13T10:55:30.570Z,61.70
2023-02-13T10:58:20.850Z,62.30
2023-02-13T11:01:13.598Z,61.00
2023-02-13T11:03:41.209Z,61.00
2023-02-13T11:06:18.142Z,60.70
2023-02-13T11:08:48.214Z,59.60
2023-02-13T11:11:39.066Z,59.30
2023-02-13T11:14:20.694Z,59.00
2023-02-13T11:17:09.740Z,58.40
2023-02-13T11:19:56.157Z,58.50
2023-02-13T11:22:42.709Z,57.60
2023-02-13T11:25:30.110Z,57.00
2023-02-13T11:28:21.208Z,56.20
2023-02-13T11:30:49.081Z,56.20
2023-02-13T11:33:28.654Z,56.10
2023-02-13T11:36:31.872Z,55.30
2023-02-13T11:39:17.757Z,54.20
2023-02-13T11:41:50.884Z,54.40
2023-02-13T11:44:31.285Z,53.80
2023-02-13T11:47:03.225Z,53.50
2023-02-13T11:49:39.461Z,54.70
2023-02-13T11:52:31.027Z,53.30
2023-02-13T11:55:31.448Z,53.40
2023-02-13T11:58:12.165Z,52.70
2023-02-13T12:00:42.494Z,52.70
2023-02-13T12:03:31.980Z,51.90
2023-02-13T12:06:15.869Z,51.10
2023-02-13T12:08:49.288Z,51.00
2023-02-13T12:11:42.190Z,51.70
2023-02-13T12:14:28.573Z,50.60
2023-02-13T12:17:29.211Z,50.60
2023-02-13T12:19:58.304Z,50.70
2023-02-13T12:22:41.962Z,50.40
2023-02-13T12:25:33.412Z,50.20
2023-02-13T12:28:43.931Z,49.10
2023-02-13T12:32:20.800Z,49.00
2023-02-13T12:35:34.028Z,48.20
2023-02-13T12:39:13.933Z,48.50
2023-02-13T12:42:51.947Z,48.00
2023-02-13T12:45:53.797Z,47.90
2023-02-13T12:48:58.429Z,48.00
2023-02-13T12:52:13.516Z,47.30
2023-02-13T12:55:27.344Z,46.10
2023-02-13T12:58:25.507Z,46.80
2023-02-13T13:01:57.836Z,46.40
2023-02-13T13:05:05.102Z,46.10
2023-02-13T13:07:54.777Z,45.20
2023-02-13T13:11:20.558Z,45.40
2023-02-13T13:14:42.228Z,45.50
2023-02-13T13:17:58.733Z,45.50
2023-02-13T13:20:52.338Z,44.90
2023-02-13T13:23:41.670Z,44.80
2023-02-13T13:26:43.677Z,45.50
2023-02-13T13:29:36.544Z,44.50
2023-02-13T13:32:13.749Z,44.80
2023-02-13T13:34:41.504Z,44.80
2023-02-13T13:37:48.101Z,45.00
2023-02-13T13:40:58.124Z,44.40
2023-02-13T13:44:03.191Z,45.00
2023-02-13T13:47:05.770Z,45.20
2023-02-13T13:49:58.585Z,45.20
2023-02-13T13:52:39.876Z,45.70
2023-02-13T13:55:29.573Z,45.70
2023-02-13T13:58:02.808Z,46.30
2023-02-13T14:00:31.378Z,46.20
2023-02-13T14:03:34.629Z,46.70
2023-02-13T14:06:22.026Z,46.60
2023-02-13T14:08:49.637Z,46.70
2023-02-13T14:11:47.249Z,47.80
2023-02-13T14:14:30.587Z,48.10
2023-02-13T14:17:04.220Z,48.40
2023-02-13T14:19:40.056Z,49.20
2023-02-13T14:22:19.482Z,49.70
2023-02-13T14:24:55.678Z,49.60
2023-02-13T14:27:40.784Z,49.90
2023-02-13T14:30:40.393Z,50.00
2023-02-13T14:33:31.755Z,50.20
2023-02-13T14:36:23.148Z,50.40
2023-02-13T14:39:20.969Z,50.70
2023-02-13T14:41:54.157Z,50.60
2023-02-13T14:44:50.043Z,50.60
2023-02-13T14:47:42.917Z,51.00
2023-02-13T14:50:45.884Z,51.20
2023-02-13T14:53:32.825Z,51.40
2023-02-13T14:56:13.739Z,51.70
2023-02-13T14:59:11.010Z,52.00
2023-02-13T15:02:31.115Z,52.20
2023-02-13T15:05:20.196Z,52.40
2023-02-13T15:08:28.404Z,52.70
2023-02-13T15:10:57.712Z,53.00
2023-02-13T15:13:37.459Z,53.50
2023-02-13T15:16:12.807Z,53.40
2023-02-13T15:18:52.823Z,53.70
2023-02-13T15:21:33.081Z,53.60
2023-02-13T15:24:00.467Z,53.90
2023-02-13T15:26:29.207Z,54.30
2023-02-13T15:29:27.924Z,54.60
2023-02-13T15:31:59.755Z,54.70
2023-02-13T15:34:36.078Z,54.80
2023-02-13T15:37:03.936Z,55.10
2023-02-13T15:39:32.849Z,55.10
2023-02-13T15:42:03.177Z,55.40
2023-02-13T15:44:38.543Z,55.70
2023-02-13T15:47:17.402Z,55.50
2023-02-13T15:49:47.816Z,55.50
2023-02-13T15:52:37.875Z,55.20
2023-02-13T15:55:06.098Z,55.30
2023-02-13T15:57:34.091Z,54.80
2023-02-13T16:00:02.967Z,55.50
2023-02-13T16:02:47.525Z,54.60
2023-02-13T16:05:19.999Z,54.10
2023-02-13T16:07:59.162Z,54.10
2023-02-13T16:10:37.256Z,53.60
2023-02-13T16:13:16.588Z,53.50
2023-02-13T16:15:44.682Z,53.30
2023-02-13T16:18:21.017Z,53.30
2023-02-13T16:20:56.469Z,52.90
2023-02-13T16:23:24.252Z,53.10
2023-02-13T16:25:52.122Z,53.10
2023-02-13T16:28:27.338Z,53.00
2023-02-13T16:31:03.218Z,53.10
2023-02-13T16:33:33.993Z,53.10
2023-02-13T16:36:29.542Z,53.40
2023-02-13T16:38:56.867Z,53.40
2023-02-13T16:41:26.743Z,53.80
2023-02-13T16:43:58.204Z,53.90
2023-02-13T16:46:38.016Z,54.20
2023-02-13T16:49:09.602Z,54.40
2023-02-13T16:52:12.299Z,54.30
2023-02-13T16:54:59.898Z,54.70
2023-02-13T16:57:34.531Z,55.00
2023-02-13T17:00:24.474Z,55.20
2023-02-13T17:02:52.803Z,55.20
2023-02-13T17:05:24.662Z,55.30
2023-02-13T17:08:01.408Z,55.60
2023-02-13T17:10:37.495Z,55.90
2023-02-13T17:13:20.127Z,56.00
2023-02-13T17:15:48.866Z,56.20
2023-02-13T17:18:16.205Z,56.40
2023-02-13T17:20:45.180Z,56.50
2023-02-13T17:23:22.538Z,56.80
2023-02-13T17:25:52.682Z,57.10
2023-02-13T17:28:27.787Z,57.10
2023-02-13T17:30:58.740Z,56.80
2023-02-13T17:33:34.684Z,56.90
2023-02-13T17:36:01.975Z,57.00
2023-02-13T17:38:29.305Z,57.40
2023-02-13T17:40:56.993Z,57.90
2023-02-13T17:43:26.889Z,58.10
2023-02-13T17:45:54.237Z,58.40
2023-02-13T17:48:21.670Z,58.80
2023-02-13T17:50:51.110Z,59.20
2023-02-13T17:53:30.213Z,59.10
2023-02-13T17:55:58.586Z,59.60
2023-02-13T17:58:26.042Z,59.60
2023-02-13T18:00:53.773Z,59.70
2023-02-13T18:03:22.289Z,60.00
2023-02-13T18:05:50.355Z,60.20
2023-02-13T18:08:17.799Z,61.20
2023-02-13T18:10:45.110Z,60.70
2023-02-13T18:13:12.503Z,61.10
2023-02-13T18:15:44.851Z,61.30
2023-02-13T18:18:16.183Z,61.30
2023-02-13T18:20:44.729Z,61.60
2023-02-13T18:23:12.034Z,62.00
2023-02-13T18:25:39.353Z,63.00
2023-02-13T18:28:06.729Z,62.60
2023-02-13T18:30:34.161Z,62.70
2023-02-13T18:33:05.009Z,63.80
2023-02-13T18:35:33.388Z,63.50
2023-02-13T18:38:00.849Z,63.70
2023-02-13T18:40:28.148Z,64.00
2023-02-13T18:42:55.462Z,64.20
2023-02-13T18:45:22.742Z,64.40
2023-02-13T18:47:50.062Z,65.00
2023-02-13T18:50:17.478Z,65.20
2023-02-13T18:52:44.906Z,65.80
2023-02-13T18:55:12.264Z,66.20
2023-02-13T18:57:43.365Z,66.50
2023-02-13T19:00:13.979Z,66.70
2023-02-13T19:02:41.332Z,66.90
2023-02-13T19:05:08.882Z,67.40
2023-02-13T19:07:36.765Z,67.50
2023-02-13T19:10:04.486Z,67.70
2023-02-13T19:12:31.839Z,68.10
2023-02-13T19:14:59.151Z,68.20
2023-02-13T19:17:26.562Z,68.50
2023-02-13T19:19:55.788Z,68.40
2023-02-13T19:22:23.117Z,68.80
2023-02-13T19:24:50.912Z,68.70
2023-02-13T19:27:18.645Z,68.70
2023-02-13T19:29:47.535Z,68.80
2023-02-13T19:32:14.889Z,69.10
2023-02-13T19:34:42.443Z,69.30
2023-02-13T19:37:09.738Z,69.70
2023-02-13T19:39:37.125Z,69.60
2023-02-13T19:42:04.696Z,69.70
2023-02-13T19:44:31.998Z,70.00
2023-02-13T19:46:59.304Z,70.30
2023-02-13T19:49:26.611Z,70.30
2023-02-13T19:51:53.893Z,70.30
2023-02-13T19:54:22.064Z,70.30
2023-02-13T19:56:49.456Z,70.60
2023-02-13T19:59:16.762Z,70.30
2023-02-13T20:01:44.278Z,70.60
2023-02-13T20:04:12.155Z,71.00
2023-02-13T20:06:40.030Z,71.20
2023-02-13T20:09:14.471Z,71.10
2023-02-13T20:11:43.748Z,71.20
2023-02-13T20:14:15.134Z,71.70
2023-02-13T20:16:45.604Z,71.80
2023-02-13T20:19:13.922Z,72.10
2023-02-13T20:21:42.837Z,72.60
2023-02-13T20:24:11.973Z,72.30
2023-02-13T20:26:40.281Z,72.50
2023-02-13T20:29:09.358Z,72.90
2023-02-13T20:31:39.497Z,72.70
2023-02-13T20:34:08.088Z,73.20
2023-02-13T20:36:35.756Z,72.80
2023-02-13T20:39:07.655Z,72.70
2023-02-13T20:41:37.756Z,73.10
2023-02-13T20:44:11.775Z,72.90
2023-02-13T20:46:40.373Z,73.40
2023-02-13T20:49:10.058Z,73.30
2023-02-13T20:51:37.499Z,73.20
2023-02-13T20:54:05.858Z,73.30
2023-02-13T20:56:33.189Z,73.60
2023-02-13T20:59:02.573Z,73.80
2023-02-13T21:01:41.285Z,73.60
2023-02-13T21:04:11.272Z,73.80
2023-02-13T21:06:41.581Z,73.70
2023-02-13T21:09:09.938Z,73.90
2023-02-13T21:11:43.177Z,73.90
2023-02-13T21:14:14.360Z,73.60
2023-02-13T21:16:42.918Z,74.00
2023-02-13T21:19:19.229Z,74.10
2023-02-13T21:21:47.596Z,74.30
2023-02-13T21:24:22.777Z,74.00
2023-02-13T21:26:52.718Z,74.40
2023-02-13T21:29:20.292Z,74.50
2023-02-13T21:31:48.036Z,74.30
2023-02-13T21:34:17.953Z,74.50
2023-02-13T21:36:46.069Z,74.70
2023-02-13T21:39:13.842Z,74.60
2023-02-13T21:41:45.684Z,74.70
2023-02-13T21:44:15.491Z,74.80
2023-02-13T21:46:45.186Z,75.00
2023-02-13T21:49:18.079Z,75.60
2023-02-13T21:51:47.050Z,75.30
2023-02-13T21:54:14.938Z,75.50
2023-02-13T21:56:44.157Z,75.40
2023-02-13T21:59:16.727Z,75.50
2023-02-13T22:01:54.026Z,75.70
2023-02-13T22:04:21.887Z,75.70
2023-02-13T22:06:52.521Z,75.90
